Estación Meteorológica Peña el Pijo (Robertgarden) [ 11/17/17 23:47:26 CET ]

Fecha Hora Presion(HPa) Temp (°C) Humedad % Rocio (°C) Viento ( m/s) Direccion Lluvia 1Hora(mm) Lluvia 24H(mm) LLuvia Total(mm)
2017-Sep-08 01:01:20 1011.500 15.3 78 11.5         1457.65
2017-Sep-08 02:01:43 1011.100 14.6 80 11.2         1457.65
2017-Sep-08 03:01:41 1011.000 14.2 82 11.2         1457.65
2017-Sep-08 04:01:46 1010.600 13.6 83 10.7         1457.65
2017-Sep-08 05:01:41 1010.300 13.9 84 11.2         1457.65
2017-Sep-08 06:01:46 1009.700 13.0 83 10.1         1457.65
2017-Sep-08 07:01:16 1009.700 11.9 85 9.4         1457.65
2017-Sep-08 08:01:32 1009.900 11.3 86 9.0         1457.65
2017-Sep-08 09:01:44 1010.000 13.3 88 11.3         1457.65
2017-Sep-08 10:01:51 1010.100 19.6 82 16.5         1457.65
2017-Sep-08 11:02:03 1010.100 26.4 57 17.2         1457.65
2017-Sep-08 12:01:35 1009.800 29.9 40 14.9         1457.65
2017-Sep-08 13:01:51 1009.200 31.2 26 9.2         1457.65
2017-Sep-08 14:01:43 1008.700 32.3 25 9.5         1457.65
2017-Sep-08 15:01:49 1008.300 33.3 22 8.6         1457.65
2017-Sep-08 16:01:43 1007.800 33.9 22 9.0         1457.65
2017-Sep-08 17:02:04 1007.100 32.8 21 7.5         1457.65
2017-Sep-08 18:01:52 1007.000 31.6 20 6.0         1457.65
2017-Sep-08 19:01:50 1006.800 29.2 21 4.5         1457.65
2017-Sep-08 20:02:01 1006.800 26.3 25 4.5         1457.65
2017-Sep-08 21:01:56 1007.200 21.9 33 4.8         1457.65
2017-Sep-08 22:01:45 1007.500 17.9 43 5.1         1457.65
2017-Sep-08 23:02:05 1007.800 16.5 46 4.8         1457.65

Temperatura Máxima:33°    Temperatura Mínima:11°
Presión Máxima:1011.500 Hpa    Presión Mínima:1006.800 Hpa


Volver